Time;durP1;ratioP1;P1;durP2;ratioP2;P2;SDS_P1;SDS_P2;PMS_P1;PMS_P2;Temp;Humidity;BMP_temperature;BMP_pressure;BME280_temperature;BME280_humidity;BME280_pressure;Samples;Min_cycle;Max_cycle;Signal;HPM_P1;HPM_P2
2023/04/13 00:04:37;;;;;;;10.00;7.90;;;23.30;54.30;;;;;;221899;1254;22509;-46
2023/04/13 00:09:44;;;;;;;10.70;7.80;;;23.20;54.30;;;;;;221999;1265;22533;-46
2023/04/13 00:14:49;;;;;;;8.50;7.00;;;23.20;54.30;;;;;;222110;1265;22530;-45
2023/04/13 00:19:56;;;;;;;9.20;7.70;;;23.30;54.60;;;;;;222332;1267;25540;-45
2023/04/13 00:25:00;;;;;;;9.30;7.40;;;23.40;54.00;;;;;;221945;1265;25259;-45
2023/04/13 00:30:09;;;;;;;7.90;6.50;;;23.40;53.80;;;;;;222171;1262;22531;-46
2023/04/13 00:35:18;;;;;;;8.70;7.00;;;23.50;54.00;;;;;;221831;1260;22804;-45
2023/04/13 00:40:23;;;;;;;9.80;6.50;;;23.50;53.60;;;;;;221746;1248;25590;-45
2023/04/13 00:45:29;;;;;;;9.90;7.10;;;23.50;53.80;;;;;;222020;1245;22759;-45
2023/04/13 00:50:33;;;;;;;9.00;6.70;;;23.40;53.80;;;;;;221882;1263;22513;-45
2023/04/13 00:55:41;;;;;;;8.80;7.10;;;23.40;53.80;;;;;;221997;1268;22519;-46
2023/04/13 01:00:45;;;;;;;8.30;6.70;;;23.40;53.80;;;;;;222014;1269;24199;-46
2023/04/13 01:06:04;;;;;;;10.30;7.40;;;23.30;53.70;;;;;;221886;1261;22575;-45
2023/04/13 01:11:40;;;;;;;8.70;6.70;;;23.20;54.10;;;;;;222277;1246;22537;-46
2023/04/13 01:16:56;;;;;;;7.70;6.30;;;23.10;54.30;;;;;;222293;1263;22536;-45
2023/04/13 01:22:03;;;;;;;7.80;6.30;;;23.10;54.50;;;;;;222119;1266;22539;-45
2023/04/13 01:27:19;;;;;;;9.50;7.10;;;23.00;55.10;;;;;;222104;1264;22522;-45
2023/04/13 01:32:23;;;;;;;7.00;6.10;;;22.80;55.50;;;;;;221993;1254;24252;-46
2023/04/13 01:37:28;;;;;;;8.30;6.70;;;22.80;55.00;;;;;;221814;1256;25328;-45
2023/04/13 01:42:33;;;;;;;7.90;6.80;;;22.70;55.10;;;;;;221813;1255;22648;-44
2023/04/13 01:47:48;;;;;;;8.30;6.30;;;22.60;55.60;;;;;;221990;1263;22511;-45
2023/04/13 01:53:30;;;;;;;7.00;5.80;;;22.60;55.10;;;;;;222204;1253;22595;-46
2023/04/13 01:58:35;;;;;;;7.30;6.30;;;22.60;55.20;;;;;;221972;1255;22535;-45
2023/04/13 02:03:47;;;;;;;8.20;6.70;;;22.50;55.40;;;;;;222207;1262;23890;-46
2023/04/13 02:08:52;;;;;;;8.40;5.90;;;22.50;55.50;;;;;;222001;1262;22519;-43
2023/04/13 02:13:56;;;;;;;7.20;6.10;;;22.50;55.50;;;;;;221924;1248;22511;-47
2023/04/13 02:19:01;;;;;;;7.00;6.00;;;22.40;56.30;;;;;;222180;1262;22653;-46
2023/04/13 02:24:06;;;;;;;7.60;6.10;;;22.40;55.70;;;;;;221866;1265;22636;-44
2023/04/13 02:29:10;;;;;;;9.90;6.70;;;22.40;55.60;;;;;;221879;1258;26671;-43
2023/04/13 02:34:15;;;;;;;7.00;5.80;;;22.30;55.70;;;;;;221917;1257;23950;-47
2023/04/13 02:39:19;;;;;;;6.50;5.80;;;22.30;55.80;;;;;;222358;1266;24324;-45
2023/04/13 02:44:24;;;;;;;8.70;6.10;;;22.20;55.80;;;;;;221665;1268;22666;-45
2023/04/13 02:49:32;;;;;;;7.20;6.00;;;22.20;55.80;;;;;;221858;1267;22637;-46
2023/04/13 02:54:53;;;;;;;6.80;5.70;;;22.20;56.50;;;;;;222034;1264;24236;-46
2023/04/13 02:59:59;;;;;;;6.40;5.80;;;22.10;56.00;;;;;;221653;1267;22574;-45
2023/04/13 03:05:12;;;;;;;6.20;5.50;;;22.10;56.30;;;;;;221936;1248;24202;-46
2023/04/13 03:10:17;;;;;;;7.60;5.60;;;22.10;56.00;;;;;;222150;1264;22514;-45
2023/04/13 03:15:22;;;;;;;6.90;6.20;;;22.10;56.30;;;;;;222117;1269;22525;-44
2023/04/13 03:20:27;;;;;;;6.10;5.50;;;22.10;56.00;;;;;;222204;1264;22515;-45
2023/04/13 03:25:34;;;;;;;7.20;6.00;;;22.00;56.40;;;;;;221935;1266;25362;-46
2023/04/13 03:30:38;;;;;;;6.00;5.40;;;22.00;56.00;;;;;;221886;1261;22629;-45
2023/04/13 03:35:43;;;;;;;8.30;5.90;;;22.00;56.00;;;;;;221941;1257;22507;-45
2023/04/13 03:40:55;;;;;;;7.30;5.80;;;22.00;56.20;;;;;;221845;1247;24613;-46
2023/04/13 03:46:00;;;;;;;7.00;6.30;;;22.00;56.10;;;;;;221903;1267;22816;-48
2023/04/13 03:51:05;;;;;;;7.20;5.20;;;22.00;56.20;;;;;;222271;1262;25268;-45
2023/04/13 03:56:20;;;;;;;6.10;5.00;;;21.90;56.20;;;;;;222248;1257;22523;-48
2023/04/13 04:01:25;;;;;;;7.00;5.90;;;22.10;56.10;;;;;;221892;1260;23004;-50
2023/04/13 04:06:30;;;;;;;5.90;5.40;;;22.40;55.50;;;;;;221895;1264;25379;-48
2023/04/13 04:11:47;;;;;;;6.60;5.40;;;22.50;55.30;;;;;;222463;1263;22613;-45
2023/04/13 04:16:57;;;;;;;6.50;5.20;;;22.70;54.90;;;;;;221858;1257;22628;-47
2023/04/13 04:22:02;;;;;;;7.10;5.00;;;23.00;54.30;;;;;;221965;1267;22532;-45
2023/04/13 04:27:13;;;;;;;7.40;6.00;;;23.10;54.10;;;;;;222249;1266;22513;-48
2023/04/13 04:32:22;;;;;;;5.70;5.20;;;23.10;54.10;;;;;;222036;1246;23888;-47
2023/04/13 04:37:28;;;;;;;5.70;5.10;;;23.10;53.70;;;;;;221790;1269;23146;-47
2023/04/13 04:42:38;;;;;;;5.40;4.90;;;23.20;53.70;;;;;;221852;1260;22658;-45
2023/04/13 04:47:51;;;;;;;5.80;5.30;;;23.30;53.60;;;;;;222051;1263;22587;-45
2023/04/13 04:52:57;;;;;;;4.60;4.20;;;23.30;53.50;;;;;;222166;1264;24237;-46
2023/04/13 04:58:01;;;;;;;5.80;5.10;;;23.40;53.30;;;;;;221746;1269;25463;-45
2023/04/13 05:03:07;;;;;;;6.20;5.00;;;23.50;53.30;;;;;;221954;1269;22636;-46
2023/04/13 05:08:14;;;;;;;7.80;5.10;;;23.50;53.20;;;;;;221862;1262;25214;-48
2023/04/13 05:13:21;;;;;;;5.50;4.90;;;23.60;53.00;;;;;;221826;1269;22531;-45
2023/04/13 05:18:47;;;;;;;6.50;5.80;;;23.60;52.80;;;;;;222046;1260;22515;-48
2023/04/13 05:24:11;;;;;;;7.10;5.70;;;23.50;52.10;;;;;;222139;1262;22526;-45
2023/04/13 05:29:16;;;;;;;6.20;5.60;;;23.50;52.30;;;;;;222054;1262;22590;-44
2023/04/13 05:34:21;;;;;;;7.20;6.20;;;23.50;52.50;;;;;;222132;1264;22514;-47
2023/04/13 05:39:37;;;;;;;5.90;5.30;;;23.40;52.60;;;;;;221986;1254;22507;-46
2023/04/13 05:44:42;;;;;;;6.30;5.70;;;23.10;53.10;;;;;;221935;1254;25342;-43
2023/04/13 05:49:47;;;;;;;7.00;6.00;;;23.00;54.60;;;;;;221995;1257;25372;-44
2023/04/13 05:54:54;;;;;;;6.80;5.80;;;23.00;55.10;;;;;;222089;1254;22522;-43
2023/04/13 05:59:59;;;;;;;7.00;5.70;;;22.90;55.50;;;;;;222190;1256;24182;-47
2023/04/13 06:05:17;;;;;;;8.60;5.70;;;22.90;54.90;;;;;;221929;1264;24216;-49
2023/04/13 06:10:21;;;;;;;8.80;6.20;;;22.90;55.20;;;;;;222189;1255;24366;-48
2023/04/13 06:15:26;;;;;;;11.70;6.00;;;22.80;55.60;;;;;;222010;1261;22524;-46
2023/04/13 06:20:32;;;;;;;6.90;5.80;;;22.80;56.20;;;;;;222022;1265;22504;-46
2023/04/13 06:25:37;;;;;;;7.40;6.00;;;22.80;55.90;;;;;;222005;1267;247793;-45
2023/04/13 06:30:42;;;;;;;8.70;6.20;;;22.80;55.70;;;;;;222139;1260;25269;-47
2023/04/13 06:35:50;;;;;;;14.00;6.00;;;22.90;56.00;;;;;;221854;1254;25396;-48
2023/04/13 06:41:03;;;;;;;13.70;5.90;;;22.80;55.80;;;;;;222355;1261;22976;-43
2023/04/13 06:46:11;;;;;;;11.20;5.90;;;22.70;56.00;;;;;;222409;1254;23996;-48
2023/04/13 06:51:16;;;;;;;12.00;6.00;;;22.80;56.10;;;;;;222161;1256;24236;-46
2023/04/13 06:56:20;;;;;;;9.70;6.40;;;22.70;56.20;;;;;;222313;1254;22518;-45
2023/04/13 07:01:26;;;;;;;9.20;6.00;;;22.70;56.10;;;;;;222177;1253;22520;-41
2023/04/13 07:06:31;;;;;;;8.00;6.60;;;22.60;56.80;;;;;;222355;1254;22511;-44
2023/04/13 07:11:36;;;;;;;9.80;7.00;;;22.50;56.90;;;;;;224287;1255;24312;-44
2023/04/13 07:16:40;;;;;;;14.70;6.60;;;22.50;55.70;;;;;;222226;1262;22504;-44
2023/04/13 07:21:45;;;;;;;11.00;6.30;;;22.50;55.70;;;;;;222752;1246;22526;-46
2023/04/13 07:26:49;;;;;;;17.00;6.70;;;22.40;56.10;;;;;;222190;1263;24247;-46
2023/04/13 07:31:59;;;;;;;11.40;8.20;;;22.30;56.30;;;;;;222195;1262;22781;-47
2023/04/13 07:37:05;;;;;;;8.20;6.20;;;22.40;56.20;;;;;;222037;1248;22614;-44
2023/04/13 07:42:10;;;;;;;10.70;7.00;;;22.30;56.40;;;;;;222200;1255;22633;-47
2023/04/13 07:47:18;;;;;;;9.90;6.60;;;22.30;56.20;;;;;;221978;1267;25274;-49
2023/04/13 07:52:22;;;;;;;11.20;7.40;;;22.30;56.20;;;;;;222126;1260;22781;-48
2023/04/13 07:57:27;;;;;;;9.60;7.00;;;22.30;56.10;;;;;;221879;1264;25278;-46
2023/04/13 08:02:36;;;;;;;10.10;6.20;;;22.30;56.10;;;;;;222026;1262;25490;-46
2023/04/13 08:07:41;;;;;;;9.80;6.50;;;22.20;56.10;;;;;;222205;1255;22665;-51
2023/04/13 08:12:45;;;;;;;9.10;6.90;;;22.20;56.10;;;;;;222118;1258;22522;-48
2023/04/13 08:17:52;;;;;;;14.60;9.10;;;22.20;56.30;;;;;;221763;1264;22511;-44
2023/04/13 08:22:57;;;;;;;13.80;8.30;;;22.30;57.70;;;;;;222135;1263;22533;-47
2023/04/13 08:28:01;;;;;;;15.30;8.70;;;22.30;58.10;;;;;;222066;1247;25450;-45
2023/04/13 08:33:05;;;;;;;11.80;7.90;;;22.30;58.20;;;;;;221901;1263;24184;-44
2023/04/13 08:38:10;;;;;;;10.70;7.40;;;22.20;58.00;;;;;;222195;1265;25224;-54
2023/04/13 08:43:18;;;;;;;14.50;8.10;;;22.20;57.90;;;;;;222030;1263;22635;-47
2023/04/13 08:48:24;;;;;;;13.70;7.60;;;22.20;57.60;;;;;;222122;1256;24059;-46
2023/04/13 08:53:31;;;;;;;10.30;7.40;;;22.10;57.70;;;;;;222143;1259;25443;-46
2023/04/13 08:58:40;;;;;;;13.10;7.10;;;22.00;57.60;;;;;;222370;1256;22521;-45
2023/04/13 09:03:53;;;;;;;12.50;7.40;;;22.00;57.60;;;;;;222514;1247;24222;-48
2023/04/13 09:08:59;;;;;;;13.80;7.90;;;22.00;57.50;;;;;;222264;1263;23918;-46
2023/04/13 09:14:05;;;;;;;11.50;7.10;;;22.00;57.30;;;;;;222345;1263;24344;-48
2023/04/13 09:19:11;;;;;;;10.40;6.50;;;22.00;57.10;;;;;;222123;1265;22504;-50
2023/04/13 09:24:15;;;;;;;11.00;7.60;;;22.10;57.00;;;;;;222191;1254;25587;-45
2023/04/13 09:29:20;;;;;;;11.50;7.00;;;22.10;57.00;;;;;;222177;1263;22507;-49
2023/04/13 09:34:27;;;;;;;9.70;6.90;;;22.00;57.30;;;;;;222244;1264;22631;-48
2023/04/13 09:39:31;;;;;;;7.20;5.90;;;22.00;56.90;;;;;;222197;1268;24728;-50
2023/04/13 09:44:35;;;;;;;10.10;6.60;;;22.00;56.90;;;;;;221789;1255;24128;-50
2023/04/13 09:49:40;;;;;;;10.60;6.40;;;22.00;56.70;;;;;;221751;1262;23958;-47
2023/04/13 09:54:49;;;;;;;7.90;6.70;;;22.00;56.60;;;;;;221943;1256;25421;-47
2023/04/13 09:59:54;;;;;;;10.30;6.30;;;22.00;57.10;;;;;;221740;1262;25474;-46
2023/04/13 10:04:59;;;;;;;7.50;5.90;;;22.00;56.50;;;;;;221867;1262;22524;-48
2023/04/13 10:10:03;;;;;;;8.90;6.50;;;22.00;56.10;;;;;;221704;1247;22559;-49
2023/04/13 10:15:17;;;;;;;7.30;6.30;;;22.00;56.40;;;;;;221877;1247;24076;-46
2023/04/13 10:20:22;;;;;;;7.50;6.20;;;22.00;56.30;;;;;;221951;1255;23494;-45
2023/04/13 10:25:26;;;;;;;8.80;6.30;;;22.10;56.40;;;;;;221819;1255;22526;-45
2023/04/13 10:30:47;;;;;;;;;;;22.00;55.90;;;;;;221948;1264;22492;-47
2023/04/13 10:35:59;;;;;;;9.90;5.80;;;22.10;56.30;;;;;;221879;1262;22518;-51
2023/04/13 10:41:03;;;;;;;7.90;5.90;;;22.30;56.10;;;;;;221838;1258;22972;-46
2023/04/13 10:46:15;;;;;;;7.00;5.60;;;22.10;56.30;;;;;;222117;1260;25301;-49
2023/04/13 10:51:19;;;;;;;13.20;6.60;;;22.10;56.40;;;;;;222034;1262;22501;-47
2023/04/13 10:56:23;;;;;;;8.40;6.30;;;22.00;56.00;;;;;;222403;1257;22651;-50
2023/04/13 11:01:29;;;;;;;7.20;5.60;;;22.10;56.30;;;;;;222129;1263;25312;-51
2023/04/13 11:06:37;;;;;;;8.00;6.00;;;22.10;56.60;;;;;;222207;1265;23311;-49
2023/04/13 11:11:41;;;;;;;7.40;5.90;;;22.00;56.80;;;;;;222082;1264;22997;-50
2023/04/13 11:16:45;;;;;;;7.30;5.50;;;22.00;56.80;;;;;;221936;1260;22673;-47
2023/04/13 11:21:56;;;;;;;6.00;5.50;;;21.90;57.00;;;;;;222079;1256;22469;-48
2023/04/13 11:27:00;;;;;;;6.40;5.60;;;21.90;57.10;;;;;;221822;1258;25408;-47
2023/04/13 11:32:05;;;;;;;8.80;5.60;;;22.00;56.90;;;;;;221828;1260;22523;-45
2023/04/13 11:37:10;;;;;;;7.50;5.10;;;21.90;56.90;;;;;;222135;1256;22516;-45
2023/04/13 11:42:14;;;;;;;7.70;5.20;;;21.90;56.90;;;;;;221895;1255;25415;-47
2023/04/13 11:47:19;;;;;;;7.10;4.60;;;21.90;57.00;;;;;;222154;1256;23913;-46
2023/04/13 11:52:24;;;;;;;6.00;5.10;;;21.90;57.00;;;;;;222019;1260;26813;-47
2023/04/13 11:57:28;;;;;;;6.90;4.80;;;21.90;57.00;;;;;;222369;1262;24369;-46
2023/04/13 12:02:31;;;;;;;5.70;4.50;;;21.90;56.90;;;;;;222052;1262;25290;-49
2023/04/13 12:07:41;;;;;;;5.10;4.50;;;21.90;56.90;;;;;;222143;1262;24240;-44
2023/04/13 12:12:46;;;;;;;5.10;4.50;;;21.80;56.70;;;;;;222079;1261;23532;-46
2023/04/13 12:18:01;;;;;;;5.10;4.30;;;21.90;56.80;;;;;;222237;1262;22577;-46
2023/04/13 12:23:22;;;;;;;6.00;4.90;;;22.30;56.40;;;;;;222006;1264;22510;-47
2023/04/13 12:28:32;;;;;;;5.40;4.30;;;22.50;56.40;;;;;;221878;1262;22507;-47
2023/04/13 12:33:38;;;;;;;4.90;4.40;;;22.70;55.10;;;;;;222110;1262;26581;-46
2023/04/13 12:38:42;;;;;;;6.00;4.50;;;22.90;55.00;;;;;;221997;1260;24263;-52
2023/04/13 12:43:46;;;;;;;6.30;4.50;;;23.00;55.30;;;;;;221960;1256;25248;-43
2023/04/13 12:48:50;;;;;;;4.80;4.30;;;23.10;54.50;;;;;;221806;1267;25351;-51
2023/04/13 12:53:54;;;;;;;5.00;4.20;;;23.20;54.20;;;;;;222051;1256;22632;-48
2023/04/13 12:58:58;;;;;;;7.20;4.00;;;23.30;54.00;;;;;;221147;1268;22514;-52
2023/04/13 13:04:04;;;;;;;7.60;4.70;;;23.40;53.90;;;;;;221240;1269;26645;-53
2023/04/13 13:09:08;;;;;;;4.10;3.70;;;23.50;53.70;;;;;;221150;1269;22517;-54
2023/04/13 13:14:12;;;;;;;5.40;3.50;;;23.60;53.60;;;;;;220952;1260;24273;-51
2023/04/13 13:19:16;;;;;;;4.40;3.90;;;23.70;53.50;;;;;;220911;1268;22521;-50
2023/04/13 13:24:21;;;;;;;3.70;3.20;;;23.70;53.70;;;;;;221779;1263;24390;-52
2023/04/13 13:29:26;;;;;;;4.60;3.50;;;23.70;53.30;;;;;;221936;1253;26686;-48
2023/04/13 13:34:30;;;;;;;4.40;3.30;;;23.70;53.50;;;;;;222057;1260;22514;-47
2023/04/13 13:39:36;;;;;;;4.00;3.60;;;23.60;53.70;;;;;;222019;1262;22509;-50
2023/04/13 13:44:41;;;;;;;5.30;3.70;;;23.60;53.80;;;;;;222192;1263;24426;-47
2023/04/13 13:49:45;;;;;;;5.00;3.20;;;23.50;53.90;;;;;;222178;1263;22733;-45
2023/04/13 13:54:58;;;;;;;4.80;3.50;;;23.40;54.10;;;;;;222230;1254;22520;-45
2023/04/13 14:00:12;;;;;;;4.40;3.60;;;23.30;54.20;;;;;;222054;1269;22544;-51
2023/04/13 14:05:16;;;;;;;4.30;3.40;;;23.30;54.90;;;;;;222161;1256;22511;-52
2023/04/13 14:10:21;;;;;;;3.40;3.10;;;23.30;54.30;;;;;;222260;1262;23886;-52
2023/04/13 14:15:26;;;;;;;3.10;2.90;;;23.20;54.20;;;;;;222223;1263;24968;-52
2023/04/13 14:20:31;;;;;;;5.30;3.60;;;23.20;53.90;;;;;;222383;1266;24462;-54
2023/04/13 14:25:36;;;;;;;3.40;3.10;;;23.10;54.20;;;;;;222273;1261;22505;-47
2023/04/13 14:30:40;;;;;;;3.60;3.10;;;23.00;54.30;;;;;;222313;1263;22674;-55
2023/04/13 14:35:45;;;;;;;4.70;2.70;;;23.00;54.40;;;;;;222271;1268;25315;-47
2023/04/13 14:40:49;;;;;;;2.80;2.60;;;23.00;54.30;;;;;;222516;1263;24275;-45
2023/04/13 14:45:54;;;;;;;5.00;2.80;;;22.90;54.40;;;;;;222142;1246;23894;-46
2023/04/13 14:50:58;;;;;;;5.00;2.70;;;22.70;54.50;;;;;;222148;1254;22514;-46
2023/04/13 14:56:04;;;;;;;5.60;3.00;;;22.60;54.70;;;;;;222308;1265;24233;-46
2023/04/13 15:01:16;;;;;;;3.70;2.80;;;22.60;54.70;;;;;;222224;1263;22505;-48
2023/04/13 15:06:21;;;;;;;6.10;3.00;;;22.70;55.00;;;;;;222032;1260;22626;-53
2023/04/13 15:11:26;;;;;;;3.40;2.80;;;22.70;55.50;;;;;;222019;1254;27904;-50
2023/04/13 15:16:30;;;;;;;3.40;2.50;;;22.60;56.60;;;;;;221945;1255;25946;-51
2023/04/13 15:21:35;;;;;;;3.40;2.70;;;22.60;57.80;;;;;;222041;1262;24222;-43
2023/04/13 15:26:40;;;;;;;3.00;2.40;;;22.60;59.10;;;;;;222307;1262;22508;-50
2023/04/13 15:31:45;;;;;;;6.30;2.90;;;22.60;60.20;;;;;;221898;1263;25345;-47
2023/04/13 15:36:49;;;;;;;5.60;2.80;;;22.70;60.50;;;;;;221868;1260;25300;-51
2023/04/13 15:41:54;;;;;;;3.10;2.70;;;22.70;60.20;;;;;;222056;1263;24233;-45
2023/04/13 15:46:57;;;;;;;6.60;2.50;;;22.60;60.30;;;;;;221926;1249;26616;-46
2023/04/13 15:52:06;;;;;;;8.10;2.50;;;22.60;60.00;;;;;;222323;1247;24343;-46
2023/04/13 15:57:13;;;;;;;8.50;2.90;;;22.70;59.30;;;;;;222075;1262;26050;-53
2023/04/13 16:02:18;;;;;;;4.80;2.60;;;22.70;59.30;;;;;;222318;1262;24240;-43
2023/04/13 16:07:24;;;;;;;5.00;2.50;;;22.60;59.50;;;;;;222251;1262;22910;-45
2023/04/13 16:12:33;;;;;;;5.90;2.40;;;22.50;59.50;;;;;;222279;1260;22635;-48
2023/04/13 16:17:42;;;;;;;6.20;2.90;;;22.50;60.00;;;;;;222004;1263;22598;-49
2023/04/13 16:22:49;;;;;;;5.20;2.80;;;22.60;59.60;;;;;;222103;1263;25233;-45
2023/04/13 16:27:53;;;;;;;6.30;2.50;;;22.60;59.50;;;;;;222293;1265;22599;-46
2023/04/13 16:32:59;;;;;;;6.80;2.50;;;22.60;59.30;;;;;;222050;1262;22510;-50
2023/04/13 16:38:07;;;;;;;3.30;2.20;;;22.60;59.00;;;;;;221964;1264;22638;-47
2023/04/13 16:43:11;;;;;;;4.80;1.80;;;22.50;59.40;;;;;;222138;1264;25401;-44
2023/04/13 16:48:16;;;;;;;4.50;2.70;;;22.60;58.80;;;;;;222019;1263;23672;-49
2023/04/13 16:53:26;;;;;;;4.80;2.30;;;22.60;58.60;;;;;;221899;1262;24365;-51
2023/04/13 16:58:33;;;;;;;4.50;2.80;;;22.50;58.50;;;;;;222142;1263;26740;-47
2023/04/13 17:03:41;;;;;;;7.10;2.00;;;22.50;58.50;;;;;;222158;1266;25236;-44
2023/04/13 17:08:46;;;;;;;4.50;2.30;;;22.40;59.00;;;;;;222103;1262;22518;-45
2023/04/13 17:13:52;;;;;;;7.80;2.60;;;22.40;58.40;;;;;;222014;1253;23853;-42
2023/04/13 17:18:56;;;;;;;5.00;2.40;;;22.30;58.40;;;;;;229897;1262;22378;-45
2023/04/13 17:24:01;;;;;;;7.10;2.10;;;22.40;58.10;;;;;;222304;1264;22524;-45
2023/04/13 17:29:07;;;;;;;4.20;2.00;;;22.50;58.00;;;;;;224687;1256;24307;-43
2023/04/13 17:34:11;;;;;;;4.00;2.60;;;22.40;57.50;;;;;;222084;1259;23574;-45
2023/04/13 17:39:15;;;;;;;5.00;2.30;;;22.40;57.10;;;;;;221799;1262;22527;-45
2023/04/13 17:44:19;;;;;;;11.10;2.50;;;22.30;57.10;;;;;;222018;1262;22539;-44
2023/04/13 17:49:26;;;;;;;6.00;2.40;;;22.30;58.10;;;;;;221847;1266;24202;-45
2023/04/13 17:54:32;;;;;;;8.20;2.60;;;22.20;57.40;;;;;;221990;1265;24242;-44
2023/04/13 17:59:36;;;;;;;8.20;2.20;;;22.10;58.10;;;;;;221980;1265;23958;-46
2023/04/13 18:04:41;;;;;;;4.80;2.20;;;22.10;57.40;;;;;;221971;1254;22483;-44
2023/04/13 18:09:49;;;;;;;4.30;2.60;;;22.10;57.80;;;;;;221704;1253;23162;-43
2023/04/13 18:15:01;;;;;;;5.80;2.20;;;22.10;57.30;;;;;;215915;1295;542816;-45
2023/04/13 18:20:08;;;;;;;4.20;2.50;;;22.10;57.70;;;;;;220107;1274;22772;-45
2023/04/13 18:25:12;;;;;;;8.10;2.60;;;22.10;57.50;;;;;;220063;1276;245572;-44
2023/04/13 18:30:19;;;;;;;6.40;2.00;;;22.10;57.10;;;;;;220506;1267;22530;-43
2023/04/13 18:35:25;;;;;;;11.00;2.80;;;22.00;57.50;;;;;;220556;1263;24255;-47
2023/04/13 18:40:32;;;;;;;10.00;2.50;;;22.10;56.50;;;;;;220598;1270;24224;-46
2023/04/13 18:45:37;;;;;;;10.90;2.70;;;22.10;56.60;;;;;;220676;1264;25386;-42
2023/04/13 18:50:43;;;;;;;8.50;3.00;;;22.00;56.90;;;;;;220423;1273;22519;-45
2023/04/13 18:55:51;;;;;;;6.50;3.00;;;22.00;58.80;;;;;;220576;1271;24271;-43
2023/04/13 19:00:57;;;;;;;12.50;2.90;;;22.00;59.00;;;;;;220421;1259;23896;-45
2023/04/13 19:06:03;;;;;;;13.20;2.80;;;22.00;58.30;;;;;;220827;1273;24195;-48
2023/04/13 19:11:14;;;;;;;10.80;2.70;;;21.90;58.20;;;;;;220809;1273;22608;-42
2023/04/13 19:16:27;;;;;;;10.70;3.70;;;21.90;58.10;;;;;;222113;1264;22732;-43
2023/04/13 19:21:35;;;;;;;9.60;4.40;;;22.00;59.00;;;;;;222253;1264;22532;-45
2023/04/13 19:26:44;;;;;;;14.80;3.90;;;22.10;57.90;;;;;;221643;1262;22532;-43
2023/04/13 19:31:50;;;;;;;7.40;3.10;;;22.00;58.70;;;;;;221987;1267;22536;-45
2023/04/13 19:36:58;;;;;;;13.40;3.70;;;21.90;58.60;;;;;;222049;1260;22521;-45
2023/04/13 19:42:13;;;;;;;9.50;2.90;;;21.80;58.80;;;;;;221826;1264;22534;-45
2023/04/13 19:47:19;;;;;;;6.70;2.80;;;21.90;58.30;;;;;;222204;1256;24202;-47
2023/04/13 19:52:27;;;;;;;4.80;3.00;;;22.00;57.90;;;;;;221974;1266;22630;-48
2023/04/13 19:57:32;;;;;;;9.20;3.60;;;22.10;57.70;;;;;;221831;1259;24225;-44
2023/04/13 20:02:45;;;;;;;12.60;3.70;;;22.10;58.60;;;;;;222023;1263;24196;-45
2023/04/13 20:07:52;;;;;;;10.00;4.60;;;22.00;58.10;;;;;;222167;1263;24386;-47
2023/04/13 20:12:57;;;;;;;9.40;3.70;;;22.00;60.00;;;;;;222242;1264;22636;-43
2023/04/13 20:18:05;;;;;;;11.80;4.00;;;22.00;60.20;;;;;;221783;1266;24213;-43
2023/04/13 20:23:10;;;;;;;9.00;4.20;;;22.00;59.50;;;;;;222153;1269;24228;-45
2023/04/13 20:28:16;;;;;;;13.70;4.00;;;22.00;59.30;;;;;;222333;1264;22512;-41
2023/04/13 20:33:23;;;;;;;12.80;3.30;;;22.00;59.10;;;;;;221893;1256;25277;-43
2023/04/13 20:38:35;;;;;;;7.80;3.20;;;21.90;59.20;;;;;;221873;1266;24238;-43
2023/04/13 20:43:40;;;;;;;8.60;3.50;;;21.90;59.00;;;;;;222123;1261;22513;-42
2023/04/13 20:48:44;;;;;;;6.30;3.50;;;21.90;59.00;;;;;;222106;1267;24250;-43
2023/04/13 20:53:51;;;;;;;10.40;3.50;;;21.80;58.80;;;;;;221910;1259;24187;-44
2023/04/13 20:58:56;;;;;;;10.60;4.00;;;21.80;59.10;;;;;;222039;1263;22514;-44
2023/04/13 21:04:00;;;;;;;6.60;3.30;;;21.70;59.10;;;;;;222113;1267;22581;-44
2023/04/13 21:09:07;;;;;;;9.50;3.80;;;21.80;59.10;;;;;;222155;1263;24370;-44
2023/04/13 21:14:12;;;;;;;8.10;3.40;;;21.80;61.10;;;;;;222219;1250;22510;-44
2023/04/13 21:19:17;;;;;;;7.70;3.20;;;21.80;62.30;;;;;;222176;1262;22776;-43
2023/04/13 21:24:22;;;;;;;5.90;3.30;;;21.80;62.10;;;;;;222112;1263;22517;-41
2023/04/13 21:29:27;;;;;;;5.70;3.50;;;21.70;62.50;;;;;;222096;1266;22518;-43
2023/04/13 21:34:31;;;;;;;6.50;3.70;;;21.90;62.10;;;;;;222147;1263;23956;-45
2023/04/13 21:39:35;;;;;;;6.40;3.60;;;22.00;62.30;;;;;;222305;1263;22689;-43
2023/04/13 21:44:39;;;;;;;4.50;3.10;;;22.10;62.40;;;;;;221794;1257;24358;-44
2023/04/13 21:49:43;;;;;;;6.00;3.60;;;22.10;62.60;;;;;;222023;1259;24245;-42
2023/04/13 21:54:47;;;;;;;4.80;3.10;;;22.10;62.70;;;;;;222207;1264;25250;-43
2023/04/13 21:59:55;;;;;;;4.80;3.60;;;22.10;63.10;;;;;;222376;1256;22508;-44
2023/04/13 22:04:59;;;;;;;4.40;3.30;;;22.20;63.00;;;;;;222471;1256;25285;-45
2023/04/13 22:10:03;;;;;;;7.90;3.50;;;22.10;63.00;;;;;;222343;1257;25454;-44
2023/04/13 22:15:08;;;;;;;9.10;4.00;;;22.20;63.00;;;;;;222284;1256;25210;-44
2023/04/13 22:20:12;;;;;;;4.30;3.40;;;22.20;63.30;;;;;;222117;1250;22529;-43
2023/04/13 22:25:16;;;;;;;7.00;3.20;;;22.20;63.40;;;;;;221946;1259;22525;-44
2023/04/13 22:30:20;;;;;;;8.00;3.70;;;22.20;63.10;;;;;;222179;1256;24078;-44
2023/04/13 22:35:25;;;;;;;7.80;3.30;;;22.20;63.00;;;;;;222122;1263;22534;-45
2023/04/13 22:40:29;;;;;;;5.10;3.40;;;22.30;63.30;;;;;;221789;1263;24249;-45
2023/04/13 22:45:33;;;;;;;5.80;3.40;;;22.30;63.60;;;;;;222090;1263;25616;-43
2023/04/13 22:50:38;;;;;;;5.80;3.10;;;22.20;63.00;;;;;;221901;1254;22651;-42
2023/04/13 22:55:42;;;;;;;5.00;3.60;;;22.10;63.00;;;;;;222003;1263;22526;-43
2023/04/13 23:00:46;;;;;;;5.60;3.10;;;22.20;62.50;;;;;;221889;1264;22522;-42
2023/04/13 23:05:50;;;;;;;5.10;3.30;;;22.10;62.50;;;;;;222110;1257;23075;-46
2023/04/13 23:10:54;;;;;;;3.80;2.40;;;22.00;61.80;;;;;;222126;1259;24182;-45
2023/04/13 23:16:00;;;;;;;3.80;2.90;;;21.90;62.00;;;;;;222284;1262;22567;-44
2023/04/13 23:21:11;;;;;;;6.70;2.90;;;21.80;62.40;;;;;;222225;1263;24343;-43
2023/04/13 23:26:15;;;;;;;3.40;2.50;;;21.80;62.10;;;;;;221984;1254;22510;-43
2023/04/13 23:31:19;;;;;;;4.00;2.80;;;21.80;61.70;;;;;;222048;1256;24365;-44
2023/04/13 23:36:23;;;;;;;2.40;2.20;;;21.70;62.00;;;;;;222157;1262;22520;-42
2023/04/13 23:41:27;;;;;;;5.00;2.60;;;21.70;62.30;;;;;;221906;1262;23886;-43
2023/04/13 23:46:32;;;;;;;2.90;2.40;;;21.60;61.90;;;;;;222449;1257;22511;-42
2023/04/13 23:51:36;;;;;;;3.90;3.10;;;21.60;61.90;;;;;;222210;1256;24186;-43
2023/04/13 23:56:41;;;;;;;3.70;2.60;;;21.60;61.70;;;;;;221927;1264;22520;-43
